Time;durP1;ratioP1;P1;durP2;ratioP2;P2;SDS_P1;SDS_P2;PMS_P1;PMS_P2;Temp;Humidity;BMP_temperature;BMP_pressure;BME280_temperature;BME280_humidity;BME280_pressure;Samples;Min_cycle;Max_cycle;Signal;HPM_P1;HPM_P2
2022/01/12 00:01:48;;;;;;;46.65;10.02;;;7.70;99.90;;;;;;4988330;28;20046;-76
2022/01/12 00:04:15;;;;;;;41.20;9.23;;;7.70;99.90;;;;;;4989116;28;20047;-73
2022/01/12 00:06:43;;;;;;;40.70;9.43;;;7.70;99.90;;;;;;4987777;28;20050;-73
2022/01/12 00:09:11;;;;;;;42.92;9.82;;;7.70;99.90;;;;;;4988471;28;20065;-79
2022/01/12 00:11:39;;;;;;;40.17;9.82;;;7.70;99.90;;;;;;4971814;28;20065;-80
2022/01/12 00:14:08;;;;;;;;;;;7.60;99.90;;;;;;4986751;28;20411;-80
2022/01/12 00:16:36;;;;;;;38.22;8.93;;;7.60;99.90;;;;;;4987792;28;19952;-76
2022/01/12 00:19:03;;;;;;;44.35;9.82;;;7.60;99.90;;;;;;5003778;28;20061;-80
2022/01/12 00:21:31;;;;;;;45.70;10.32;;;7.60;99.90;;;;;;4988738;28;20058;-79
2022/01/12 00:23:59;;;;;;;43.42;10.13;;;7.60;99.90;;;;;;4988694;28;20057;-76
2022/01/12 00:34:43;;;;;;;42.00;10.15;;;7.50;99.90;;;;;;4987270;28;20069;-80
2022/01/12 00:37:11;;;;;;;40.08;10.77;;;7.50;99.90;;;;;;4988170;28;20046;-80
2022/01/12 00:39:39;;;;;;;43.28;11.23;;;7.50;99.90;;;;;;4988333;28;20415;-78
2022/01/12 00:42:11;;;;;;;40.75;11.02;;;7.50;99.90;;;;;;4988035;28;20050;-81
2022/01/12 00:44:44;;;;;;;42.00;11.10;;;7.40;99.90;;;;;;4989338;28;20058;-78
2022/01/12 00:47:12;;;;;;;35.53;9.88;;;7.40;99.90;;;;;;4986731;28;20066;-83
2022/01/12 00:49:40;;;;;;;41.65;10.95;;;7.40;99.90;;;;;;4988340;28;20046;-79
2022/01/12 00:52:09;;;;;;;43.65;11.70;;;7.40;99.90;;;;;;4970656;28;20065;-81
2022/01/12 00:54:38;;;;;;;44.35;12.73;;;7.30;99.90;;;;;;4987012;28;20050;-80
2022/01/12 00:57:05;;;;;;;49.92;12.23;;;7.30;99.90;;;;;;4988180;28;20046;-83
2022/01/12 00:59:35;;;;;;;41.17;12.63;;;7.20;99.90;;;;;;4986588;28;20053;-76
2022/01/12 01:02:03;;;;;;;43.20;12.43;;;7.20;99.90;;;;;;4986431;28;20058;-82
2022/01/12 01:04:31;;;;;;;44.30;11.68;;;7.10;99.90;;;;;;4954660;28;20054;-82
2022/01/12 01:07:00;;;;;;;47.47;10.50;;;7.10;99.90;;;;;;4954656;28;20046;-77
2022/01/12 01:09:30;;;;;;;52.50;11.95;;;7.00;99.90;;;;;;4986320;28;20046;-81
2022/01/12 01:11:58;;;;;;;39.30;11.07;;;7.00;99.90;;;;;;4970531;28;20042;-77
2022/01/12 01:14:43;;;;;;;42.30;11.30;;;6.90;99.90;;;;;;4987673;28;20050;-77
2022/01/12 01:25:32;;;;;;;30.95;8.52;;;6.60;99.90;;;;;;4950435;28;20070;-81
2022/01/12 01:28:01;;;;;;;41.85;8.20;;;6.60;99.90;;;;;;4967089;28;20058;-83
2022/01/12 01:30:30;;;;;;;40.72;8.18;;;6.50;99.90;;;;;;4984049;28;20050;-78
2022/01/12 01:33:05;;;;;;;42.92;8.25;;;6.50;99.90;;;;;;4970202;28;20055;-78
2022/01/12 01:35:38;;;;;;;44.95;8.30;;;6.40;99.90;;;;;;4986161;28;20424;-83
2022/01/12 01:38:07;;;;;;;33.38;7.03;;;6.40;99.90;;;;;;4970077;28;20049;-80
2022/01/12 01:40:37;;;;;;;36.15;7.60;;;6.30;99.90;;;;;;4986725;28;20042;-80
2022/01/12 01:53:58;;;;;;;35.15;7.68;;;6.20;99.90;;;;;;4986659;28;20051;-81
2022/01/12 01:56:25;;;;;;;;;;;6.20;99.90;;;;;;4971430;28;20431;-78
2022/01/12 01:58:53;;;;;;;42.75;8.20;;;6.10;99.90;;;;;;4988874;28;19922;-82
2022/01/12 02:01:23;;;;;;;37.78;8.48;;;6.10;99.90;;;;;;4987660;28;20046;-80
2022/01/12 02:04:01;;;;;;;36.10;8.48;;;6.10;99.90;;;;;;4987047;28;20050;-77
2022/01/12 02:06:30;;;;;;;36.80;8.20;;;6.00;99.90;;;;;;4971045;28;20062;-80
2022/01/12 02:08:58;;;;;;;35.10;8.15;;;5.90;99.90;;;;;;4978007;28;20042;-76
2022/01/12 02:11:52;;;;;;;44.50;9.30;;;5.90;99.90;;;;;;4997687;28;20643;-77
2022/01/12 02:14:25;;;;;;;40.40;9.55;;;5.80;99.90;;;;;;4996916;28;20062;-75
2022/01/12 02:16:59;;;;;;;43.72;10.07;;;5.70;99.90;;;;;;4998205;28;20054;-74
2022/01/12 02:19:47;;;;;;;39.80;9.30;;;5.70;99.90;;;;;;4975387;28;20058;-74
2022/01/12 02:36:23;;;;;;;38.90;10.25;;;5.10;99.90;;;;;;4986557;28;20050;-80
2022/01/12 02:41:40;;;;;;;46.70;11.23;;;4.90;99.90;;;;;;4987068;28;20047;-76
2022/01/12 02:55:08;;;;;;;47.78;13.55;;;4.60;99.90;;;;;;4988686;28;20054;-76
2022/01/12 02:57:36;;;;;;;33.92;10.90;;;4.60;99.90;;;;;;4989707;28;20395;-75
2022/01/12 03:00:12;;;;;;;;;;;4.50;99.90;;;;;;4990243;28;20058;-81
2022/01/12 03:02:41;;;;;;;43.13;12.48;;;4.50;99.90;;;;;;4990655;28;20322;-77
2022/01/12 03:08:02;;;;;;;47.13;14.23;;;4.40;99.90;;;;;;4990862;28;20505;-78
2022/01/12 03:10:30;;;;;;;39.45;12.13;;;4.40;99.90;;;;;;4989092;28;20399;-82
2022/01/12 03:12:58;;;;;;;45.88;13.10;;;4.40;99.90;;;;;;4973522;28;20634;-83
2022/01/12 03:15:26;;;;;;;44.65;12.93;;;4.30;99.90;;;;;;4990749;28;20054;-79
2022/01/12 03:17:55;;;;;;;41.67;12.30;;;4.20;99.90;;;;;;4990752;28;20054;-80
2022/01/12 03:20:24;;;;;;;43.85;12.18;;;4.20;99.90;;;;;;5005488;28;20046;-78
2022/01/12 03:22:51;;;;;;;54.05;14.43;;;4.10;99.90;;;;;;4979410;28;20525;-77
2022/01/12 03:25:19;;;;;;;41.20;13.45;;;4.20;99.90;;;;;;4992292;28;20046;-73
2022/01/12 03:27:49;;;;;;;49.80;13.73;;;4.00;99.90;;;;;;4992391;28;20053;-81
2022/01/12 03:30:16;;;;;;;54.75;14.25;;;4.00;99.90;;;;;;5008508;28;20596;-75
2022/01/12 03:32:49;;;;;;;52.63;14.50;;;4.00;99.90;;;;;;4992713;28;20098;-76
2022/01/12 03:35:36;;;;;;;45.13;14.38;;;3.90;99.90;;;;;;4988894;28;20050;-73
2022/01/12 03:38:22;;;;;;;50.47;15.32;;;3.90;99.90;;;;;;4990042;28;20050;-73
2022/01/12 03:40:51;;;;;;;82.68;13.88;;;3.80;99.90;;;;;;4988221;28;20054;-78
2022/01/12 03:43:19;;;;;;;44.25;14.70;;;3.80;99.90;;;;;;4988260;28;20046;-79
2022/01/12 03:45:48;;;;;;;50.03;15.68;;;3.70;99.90;;;;;;4971107;28;20061;-80
2022/01/12 03:48:16;;;;;;;53.53;15.10;;;3.70;99.90;;;;;;4988147;28;20057;-74
2022/01/12 03:50:48;;;;;;;52.65;14.35;;;3.60;99.90;;;;;;4988883;28;20057;-76
2022/01/12 03:53:16;;;;;;;49.95;15.43;;;3.60;99.90;;;;;;4988151;28;20053;-78
2022/01/12 03:55:44;;;;;;;46.25;15.75;;;3.60;99.90;;;;;;4972171;28;20077;-77
2022/01/12 03:58:12;;;;;;;57.13;16.80;;;3.50;99.90;;;;;;4972294;28;20511;-79
2022/01/12 04:00:41;;;;;;;47.55;15.40;;;3.50;99.90;;;;;;4988333;28;20376;-76
2022/01/12 04:03:09;;;;;;;52.38;14.48;;;3.50;99.90;;;;;;4972192;28;20054;-79
2022/01/12 04:08:21;;;;;;;50.53;15.70;;;3.40;99.90;;;;;;4989533;28;20050;-80
2022/01/12 04:10:53;;;;;;;65.45;17.33;;;3.40;99.90;;;;;;4987426;28;20046;-78
2022/01/12 04:13:22;;;;;;;60.13;15.75;;;3.40;99.90;;;;;;4988336;28;20050;-74
2022/01/12 04:15:57;;;;;;;52.10;15.30;;;3.30;99.90;;;;;;4988290;28;20081;-76
2022/01/12 04:18:25;;;;;;;48.75;14.63;;;3.20;99.90;;;;;;4988102;28;20061;-76
2022/01/12 04:20:53;;;;;;;43.28;15.18;;;3.20;99.90;;;;;;4987330;28;20050;-80
2022/01/12 04:23:22;;;;;;;46.90;14.68;;;3.10;99.90;;;;;;4987423;28;20058;-82
2022/01/12 04:25:57;;;;;;;66.53;15.93;;;3.20;99.90;;;;;;4970319;28;20062;-82
2022/01/12 04:28:26;;;;;;;39.58;15.05;;;3.00;99.90;;;;;;4989202;28;20054;-75
2022/01/12 04:30:56;;;;;;;73.45;17.33;;;3.00;99.90;;;;;;4987263;28;20042;-78
2022/01/12 04:33:24;;;;;;;57.13;14.50;;;3.00;99.90;;;;;;4988220;28;20050;-82
2022/01/12 04:35:54;;;;;;;47.33;14.25;;;2.90;99.90;;;;;;4988105;28;20060;-83
2022/01/12 04:38:27;;;;;;;51.95;16.48;;;2.90;99.90;;;;;;4987920;28;20061;-82
2022/01/12 04:40:55;;;;;;;60.50;16.52;;;2.80;99.90;;;;;;4971222;28;20058;-80
2022/01/12 04:43:25;;;;;;;41.70;15.30;;;2.80;99.90;;;;;;4987820;28;20046;-74
2022/01/12 04:50:54;;;;;;;57.08;16.45;;;2.70;99.90;;;;;;4988872;28;20053;-79
2022/01/12 04:53:22;;;;;;;57.22;17.42;;;2.80;99.90;;;;;;4987079;28;20053;-80
2022/01/12 04:55:51;;;;;;;62.40;18.67;;;2.60;99.90;;;;;;4988930;28;20360;-79
2022/01/12 04:58:21;;;;;;;70.88;18.67;;;2.60;99.90;;;;;;4987922;28;20054;-80
2022/01/12 05:00:51;;;;;;;66.20;19.77;;;2.60;99.90;;;;;;4988161;28;20046;-81
2022/01/12 05:06:36;;;;;;;65.00;17.17;;;2.60;99.90;;;;;;4987335;28;20046;-80
2022/01/12 05:14:38;;;;;;;58.53;18.02;;;2.50;99.90;;;;;;4987811;28;20066;-84
2022/01/12 05:17:06;;;;;;;59.67;16.80;;;2.50;99.90;;;;;;4989622;28;20054;-80
2022/01/12 05:19:33;;;;;;;57.33;16.55;;;2.40;99.90;;;;;;4987054;28;20061;-80
2022/01/12 05:22:01;;;;;;;55.03;18.05;;;2.50;99.90;;;;;;4987871;28;20054;-76
2022/01/12 05:24:29;;;;;;;;;;;2.40;99.90;;;;;;4949587;28;20059;-76
2022/01/12 05:27:17;;;;;;;53.28;15.68;;;2.40;99.90;;;;;;4967329;28;19926;-77
2022/01/12 05:29:46;;;;;;;57.78;16.75;;;2.40;99.90;;;;;;4967108;28;20042;-76
2022/01/12 05:32:13;;;;;;;51.55;16.50;;;2.40;99.90;;;;;;4970740;28;20051;-81
2022/01/12 05:34:43;;;;;;;66.93;16.30;;;2.30;99.90;;;;;;4986193;28;20073;-81
2022/01/12 05:37:11;;;;;;;50.45;15.82;;;2.40;99.90;;;;;;4986697;28;20061;-77
2022/01/12 05:39:39;;;;;;;44.72;16.20;;;2.30;99.90;;;;;;4986418;28;20050;-77
2022/01/12 05:42:26;;;;;;;50.05;16.05;;;2.20;99.90;;;;;;4986446;28;20065;-79
2022/01/12 05:44:54;;;;;;;49.08;15.05;;;2.30;99.90;;;;;;4970480;28;20053;-78
2022/01/12 05:47:39;;;;;;;50.88;16.42;;;2.20;99.90;;;;;;4986031;28;20058;-80
2022/01/12 05:50:08;;;;;;;43.83;14.25;;;2.10;99.90;;;;;;4985401;28;20451;-83
2022/01/12 05:52:36;;;;;;;44.08;15.32;;;2.10;99.90;;;;;;4985883;28;20054;-78
2022/01/12 05:55:05;;;;;;;46.10;15.65;;;2.10;99.90;;;;;;4969483;28;20053;-82
2022/01/12 05:57:34;;;;;;;61.00;17.10;;;2.00;99.90;;;;;;4986497;28;20061;-81
2022/01/12 06:00:08;;;;;;;49.15;15.70;;;2.00;99.90;;;;;;4984988;28;20057;-78
2022/01/12 06:02:41;;;;;;;45.97;16.33;;;2.00;99.90;;;;;;4984388;28;20057;-82
2022/01/12 06:05:18;;;;;;;49.72;15.40;;;2.00;99.90;;;;;;4985906;28;20050;-80
2022/01/12 06:07:52;;;;;;;47.65;16.05;;;2.00;99.90;;;;;;4986623;28;20363;-82
2022/01/12 06:10:22;;;;;;;51.30;15.95;;;2.00;99.90;;;;;;4985646;28;20054;-80
2022/01/12 06:12:52;;;;;;;47.25;16.17;;;1.90;99.90;;;;;;4985342;28;20043;-80
2022/01/12 06:15:20;;;;;;;46.13;17.10;;;1.90;99.90;;;;;;4985545;28;20038;-77
2022/01/12 06:17:48;;;;;;;54.38;17.35;;;1.90;99.90;;;;;;4985307;28;20549;-79
2022/01/12 06:20:16;;;;;;;47.03;17.23;;;1.80;99.90;;;;;;4984992;28;20493;-81
2022/01/12 06:23:17;;;;;;;46.10;17.23;;;1.80;99.90;;;;;;4984167;28;20042;-77
2022/01/12 06:25:52;;;;;;;49.40;18.15;;;1.90;99.90;;;;;;4985155;28;20050;-76
2022/01/12 06:31:10;;;;;;;51.83;17.95;;;1.80;99.90;;;;;;4986390;28;20139;-78
2022/01/12 06:33:41;;;;;;;53.53;18.50;;;1.80;99.90;;;;;;4954882;28;20399;-83
2022/01/12 06:36:13;;;;;;;57.60;19.80;;;1.70;99.90;;;;;;4985236;28;20061;-80
2022/01/12 06:38:45;;;;;;;63.22;20.88;;;1.70;99.90;;;;;;4968935;28;20050;-81
2022/01/12 06:41:14;;;;;;;60.92;19.08;;;1.70;99.90;;;;;;4969447;28;20046;-80
2022/01/12 06:43:42;;;;;;;74.57;20.27;;;1.70;99.90;;;;;;4969066;28;20054;-80
2022/01/12 06:46:19;;;;;;;68.68;20.42;;;1.60;99.90;;;;;;4985319;28;20517;-78
2022/01/12 06:48:47;;;;;;;68.38;20.45;;;1.60;99.90;;;;;;4986109;28;20062;-80
2022/01/12 06:51:15;;;;;;;63.65;21.40;;;1.60;99.90;;;;;;4984764;28;20057;-79
2022/01/12 06:53:43;;;;;;;;;;;1.60;99.90;;;;;;4985229;28;20150;-82
2022/01/12 06:56:15;;;;;;;68.70;20.92;;;1.60;99.90;;;;;;4984738;28;19932;-75
2022/01/12 06:58:47;;;;;;;70.63;20.77;;;1.50;99.90;;;;;;4984862;28;20052;-80
2022/01/12 07:01:16;;;;;;;77.47;21.15;;;1.50;99.90;;;;;;4984844;28;20118;-77
2022/01/12 07:03:46;;;;;;;74.32;21.98;;;1.40;99.90;;;;;;5000689;28;20523;-77
2022/01/12 07:06:15;;;;;;;72.90;21.15;;;1.40;99.90;;;;;;4969089;28;20054;-76
2022/01/12 07:08:45;;;;;;;73.10;22.40;;;1.40;99.90;;;;;;4984844;28;20265;-76
2022/01/12 07:11:23;;;;;;;68.85;20.98;;;1.40;99.90;;;;;;4984595;28;20054;-82
2022/01/12 07:13:57;;;;;;;81.68;22.15;;;1.40;99.90;;;;;;4984981;28;20053;-76
2022/01/12 07:16:25;;;;;;;;;;;1.30;99.90;;;;;;4985605;28;20407;-80
2022/01/12 07:18:58;;;;;;;67.15;20.27;;;1.30;99.90;;;;;;4985158;28;19926;-78
2022/01/12 07:21:29;;;;;;;75.63;22.05;;;1.30;99.90;;;;;;4978449;28;20043;-79
2022/01/12 07:23:57;;;;;;;79.00;21.77;;;1.30;99.90;;;;;;4965373;28;20382;-75
2022/01/12 07:26:25;;;;;;;75.82;22.38;;;1.30;99.90;;;;;;4999680;28;20484;-74
2022/01/12 07:28:53;;;;;;;78.43;22.50;;;1.30;99.90;;;;;;4970096;28;20061;-74
2022/01/12 07:31:21;;;;;;;71.38;22.77;;;1.30;99.90;;;;;;4970049;28;20046;-75
2022/01/12 07:33:54;;;;;;;85.00;23.52;;;1.30;99.90;;;;;;4985401;28;20277;-75
2022/01/12 07:36:21;;;;;;;85.20;23.40;;;1.30;99.90;;;;;;4989862;28;20062;-75
2022/01/12 07:38:53;;;;;;;71.28;23.60;;;1.20;99.90;;;;;;4988693;28;20050;-77
2022/01/12 07:41:22;;;;;;;79.18;23.67;;;1.20;99.90;;;;;;4988150;28;20046;-75
2022/01/12 07:43:50;;;;;;;88.65;24.90;;;1.20;99.90;;;;;;4987777;28;20403;-78
2022/01/12 07:46:18;;;;;;;78.45;24.67;;;1.20;99.90;;;;;;4988207;28;20411;-74
2022/01/12 07:48:45;;;;;;;79.85;24.73;;;1.20;99.90;;;;;;4971868;28;20540;-78
2022/01/12 07:51:14;;;;;;;93.82;25.08;;;1.20;99.90;;;;;;4987847;28;20050;-75
2022/01/12 07:53:41;;;;;;;82.82;25.58;;;1.20;99.90;;;;;;4985044;28;20174;-78
2022/01/12 07:56:09;;;;;;;89.25;25.70;;;1.10;99.90;;;;;;4988694;28;20054;-76
2022/01/12 07:58:37;;;;;;;88.38;26.08;;;1.10;99.90;;;;;;4989580;28;20065;-79
2022/01/12 08:01:05;;;;;;;86.30;24.33;;;1.10;99.90;;;;;;4987431;28;20065;-76
2022/01/12 08:03:33;;;;;;;87.28;25.50;;;1.10;99.90;;;;;;4988895;28;20349;-77
2022/01/12 08:06:04;;;;;;;85.65;24.77;;;1.00;99.90;;;;;;4987481;28;20046;-76
2022/01/12 08:08:41;;;;;;;79.25;24.50;;;1.10;99.90;;;;;;4991452;28;20046;-78
2022/01/12 08:11:09;;;;;;;89.50;24.73;;;1.00;99.90;;;;;;4987648;28;20494;-75
2022/01/12 08:13:39;;;;;;;92.97;25.90;;;0.90;99.90;;;;;;5003085;28;20066;-77
2022/01/12 08:16:07;;;;;;;92.68;26.85;;;0.90;99.90;;;;;;5019383;28;20038;-76
2022/01/12 08:18:35;;;;;;;90.43;26.13;;;1.00;99.90;;;;;;5003227;28;20542;-77
2022/01/12 08:21:05;;;;;;;96.18;26.67;;;0.90;99.90;;;;;;5001502;28;20046;-75
2022/01/12 08:23:34;;;;;;;88.80;27.75;;;1.00;99.90;;;;;;5004375;28;20491;-75
2022/01/12 08:26:06;;;;;;;105.72;31.10;;;0.90;99.90;;;;;;4987104;28;20046;-79
2022/01/12 08:28:34;;;;;;;;;;;1.00;99.90;;;;;;5002797;28;20050;-78
2022/01/12 08:31:02;;;;;;;98.45;26.63;;;1.00;99.90;;;;;;4970253;28;20309;-76
2022/01/12 08:33:30;;;;;;;;;;;1.00;99.90;;;;;;4987148;28;20054;-79
2022/01/12 08:35:57;;;;;;;93.57;25.92;;;1.10;99.90;;;;;;4987197;28;19936;-84
2022/01/12 08:38:25;;;;;;;91.50;27.88;;;1.10;99.90;;;;;;4978194;28;20407;-80
2022/01/12 08:40:53;;;;;;;104.30;28.70;;;1.30;99.90;;;;;;5003121;28;20053;-81
2022/01/12 08:43:21;;;;;;;99.28;27.73;;;1.20;99.90;;;;;;5004999;28;20039;-79
2022/01/12 08:45:51;;;;;;;97.55;29.55;;;1.30;99.90;;;;;;5010479;28;20061;-80
2022/01/12 08:48:18;;;;;;;99.10;29.63;;;1.30;99.90;;;;;;5005656;28;20046;-83
2022/01/12 08:50:48;;;;;;;100.03;28.92;;;1.40;99.90;;;;;;4989560;28;20048;-82
2022/01/12 08:53:16;;;;;;;100.50;28.17;;;1.40;99.90;;;;;;4998791;28;20380;-78
2022/01/12 08:55:44;;;;;;;93.78;25.88;;;1.40;99.90;;;;;;4995629;28;20757;-82
2022/01/12 08:58:12;;;;;;;94.30;25.98;;;1.50;99.90;;;;;;5000101;28;20049;-81
2022/01/12 09:00:40;;;;;;;90.57;26.75;;;1.50;99.90;;;;;;4997452;28;20050;-83
2022/01/12 09:03:08;;;;;;;;;;;1.50;99.90;;;;;;4996820;28;20054;-83
2022/01/12 09:05:39;;;;;;;92.10;26.77;;;1.60;99.90;;;;;;4982998;28;19926;-80
2022/01/12 09:08:07;;;;;;;105.40;28.58;;;1.80;99.90;;;;;;5001881;28;20422;-80
2022/01/12 09:10:35;;;;;;;97.13;28.85;;;1.70;99.90;;;;;;5006513;28;20060;-80
2022/01/12 09:13:02;;;;;;;108.03;29.25;;;1.70;99.90;;;;;;4992415;28;20046;-74
2022/01/12 09:15:30;;;;;;;110.68;29.13;;;1.80;99.90;;;;;;4985960;28;20042;-77
2022/01/12 09:17:58;;;;;;;92.65;29.15;;;1.90;99.90;;;;;;4986182;28;20693;-74
2022/01/12 09:20:28;;;;;;;99.40;29.52;;;2.00;99.90;;;;;;4977185;28;20043;-79
2022/01/12 09:22:56;;;;;;;109.10;30.92;;;2.10;99.90;;;;;;4966332;28;20054;-78
2022/01/12 09:25:25;;;;;;;99.80;30.02;;;2.10;99.90;;;;;;4988334;28;20046;-75
2022/01/12 09:27:54;;;;;;;96.13;31.27;;;2.10;99.90;;;;;;4986338;28;20046;-74
2022/01/12 09:30:23;;;;;;;91.53;30.52;;;2.30;99.90;;;;;;4982365;28;20046;-76
2022/01/12 09:32:50;;;;;;;93.13;30.45;;;2.30;99.90;;;;;;4980712;28;20074;-75
2022/01/12 09:35:22;;;;;;;94.05;31.42;;;2.40;99.90;;;;;;4977478;28;20049;-75
2022/01/12 09:37:50;;;;;;;102.57;33.08;;;2.40;99.90;;;;;;4966656;28;20051;-83
2022/01/12 09:40:18;;;;;;;98.07;32.38;;;2.50;99.90;;;;;;4976385;28;20522;-75
2022/01/12 09:42:48;;;;;;;102.82;34.88;;;2.50;99.90;;;;;;4979566;28;20050;-74
2022/01/12 09:45:18;;;;;;;88.45;32.75;;;2.50;99.90;;;;;;4982159;28;20042;-74
2022/01/12 09:47:50;;;;;;;87.60;32.60;;;2.60;99.90;;;;;;4988217;28;20050;-78
2022/01/12 09:50:22;;;;;;;94.38;34.65;;;2.60;99.90;;;;;;4965328;28;20751;-78
2022/01/12 09:52:51;;;;;;;93.72;33.33;;;2.60;99.90;;;;;;4997416;28;20046;-76
2022/01/12 09:55:22;;;;;;;102.00;34.15;;;2.70;99.90;;;;;;5004144;28;20058;-78
2022/01/12 09:57:50;;;;;;;105.20;33.38;;;2.70;99.90;;;;;;4998970;28;20060;-79
2022/01/12 10:00:23;;;;;;;;;;;2.70;99.90;;;;;;5001999;28;20757;-78
2022/01/12 10:02:51;;;;;;;103.15;32.95;;;2.80;99.90;;;;;;4986778;28;20274;-78
2022/01/12 10:05:31;;;;;;;102.82;34.70;;;2.80;99.90;;;;;;5006005;28;20057;-79
2022/01/12 10:08:10;;;;;;;86.53;29.85;;;3.10;99.90;;;;;;5004434;28;20053;-80
2022/01/12 10:10:39;;;;;;;82.00;28.67;;;3.00;99.90;;;;;;4990684;28;20086;-78
2022/01/12 10:13:22;;;;;;;81.78;26.95;;;3.10;99.90;;;;;;4986096;28;20050;-77
2022/01/12 10:15:52;;;;;;;72.47;26.15;;;3.10;99.90;;;;;;4984707;28;20054;-82
2022/01/12 10:18:22;;;;;;;69.30;24.73;;;3.20;99.90;;;;;;4986034;28;20388;-80
2022/01/12 10:20:51;;;;;;;66.43;25.02;;;3.20;99.90;;;;;;4985206;28;20053;-82
2022/01/12 10:23:22;;;;;;;82.53;26.05;;;3.20;99.90;;;;;;4986040;28;20050;-77
2022/01/12 10:25:50;;;;;;;68.78;23.33;;;3.50;99.90;;;;;;4993079;28;20498;-76
2022/01/12 10:28:24;;;;;;;62.85;22.48;;;3.70;99.90;;;;;;5003828;28;20065;-76
2022/01/12 10:30:59;;;;;;;56.47;22.52;;;3.90;99.90;;;;;;5005312;28;20050;-77
2022/01/12 10:33:30;;;;;;;55.03;19.95;;;4.20;99.90;;;;;;4991655;28;20064;-75
2022/01/12 10:36:10;;;;;;;47.50;18.35;;;4.60;99.90;;;;;;4984669;28;20051;-77
2022/01/12 10:38:37;;;;;;;45.28;17.20;;;5.00;99.90;;;;;;4984356;28;20427;-78
2022/01/12 10:41:05;;;;;;;44.08;17.42;;;5.50;99.90;;;;;;4985791;28;20042;-79
2022/01/12 10:43:39;;;;;;;38.25;16.50;;;6.00;99.90;;;;;;4984454;28;20717;-80
2022/01/12 10:46:09;;;;;;;36.47;15.70;;;6.60;99.90;;;;;;4984819;28;20492;-80
2022/01/12 10:48:48;;;;;;;37.05;17.00;;;7.10;99.90;;;;;;4984790;28;20058;-80
2022/01/12 10:51:25;;;;;;;41.28;15.82;;;7.70;99.90;;;;;;4986428;28;20061;-84
2022/01/12 10:53:59;;;;;;;35.28;15.60;;;8.20;99.90;;;;;;4984766;28;20046;-79
2022/01/12 10:56:28;;;;;;;40.42;15.88;;;8.80;99.90;;;;;;4975373;28;20403;-81
2022/01/12 10:58:57;;;;;;;38.53;16.58;;;9.30;99.90;;;;;;4977864;28;20059;-77
2022/01/12 11:01:28;;;;;;;34.55;15.48;;;9.90;99.90;;;;;;4997385;28;20049;-77
2022/01/12 11:03:56;;;;;;;37.65;14.98;;;10.40;99.90;;;;;;4985761;28;20054;-76
2022/01/12 11:06:25;;;;;;;35.67;14.68;;;11.00;99.90;;;;;;4966158;28;20050;-76
2022/01/12 11:08:55;;;;;;;38.33;14.75;;;11.40;99.90;;;;;;4989780;28;20362;-78
2022/01/12 11:11:25;;;;;;;39.92;14.65;;;11.90;99.90;;;;;;4988494;28;20046;-74
2022/01/12 11:13:53;;;;;;;36.85;12.55;;;12.30;99.90;;;;;;4988410;28;20411;-81
2022/01/12 11:16:23;;;;;;;32.53;12.88;;;12.60;99.90;;;;;;5004941;28;20510;-85
2022/01/12 11:18:54;;;;;;;33.00;12.20;;;12.80;99.90;;;;;;4972497;28;20487;-79
2022/01/12 11:21:30;;;;;;;34.13;12.75;;;13.00;99.90;;;;;;4999269;28;20479;-80
2022/01/12 11:23:58;;;;;;;31.88;14.02;;;13.30;99.90;;;;;;5016164;28;20046;-77
2022/01/12 11:26:29;;;;;;;36.25;15.00;;;13.60;99.90;;;;;;4983994;28;20050;-78
2022/01/12 11:28:58;;;;;;;31.08;14.00;;;14.00;99.90;;;;;;4999453;28;20042;-76
2022/01/12 11:31:29;;;;;;;32.90;14.10;;;14.20;99.90;;;;;;5006553;28;20498;-74
2022/01/12 11:33:57;;;;;;;31.33;12.63;;;14.50;99.90;;;;;;4988915;28;20054;-75
2022/01/12 11:36:33;;;;;;;30.85;12.20;;;14.80;99.90;;;;;;4981512;28;20522;-74
2022/01/12 11:39:08;;;;;;;28.75;11.25;;;15.20;99.90;;;;;;4976835;28;20054;-74
2022/01/12 11:41:39;;;;;;;31.33;11.38;;;15.50;99.90;;;;;;4988682;28;20057;-75
2022/01/12 11:44:15;;;;;;;39.58;12.10;;;15.60;99.90;;;;;;4986670;28;20081;-78
2022/01/12 11:46:55;;;;;;;30.92;12.15;;;15.90;99.90;;;;;;4987763;28;20061;-74
2022/01/12 11:49:31;;;;;;;37.63;12.25;;;16.10;99.90;;;;;;4987695;28;20050;-74
2022/01/12 11:52:12;;;;;;;34.58;10.85;;;16.40;99.90;;;;;;4967615;28;20051;-77
2022/01/12 11:54:45;;;;;;;29.00;10.50;;;16.70;99.90;;;;;;4986443;28;20054;-77
2022/01/12 11:57:18;;;;;;;29.95;9.98;;;17.00;99.90;;;;;;4984585;28;20050;-74
2022/01/12 12:00:01;;;;;;;32.75;11.65;;;17.20;99.90;;;;;;4967536;28;20054;-73
2022/01/12 12:02:41;;;;;;;36.47;10.70;;;17.20;99.90;;;;;;4989704;28;20054;-75
2022/01/12 12:05:20;;;;;;;28.05;11.35;;;17.10;99.90;;;;;;4988483;28;20418;-75
2022/01/12 12:07:52;;;;;;;31.20;11.60;;;16.90;99.90;;;;;;4988649;28;20046;-73
2022/01/12 12:10:25;;;;;;;31.80;10.95;;;16.40;99.90;;;;;;5003672;28;20058;-73
2022/01/12 12:12:55;;;;;;;34.92;10.77;;;16.10;99.90;;;;;;4978084;28;20069;-77
2022/01/12 12:15:24;;;;;;;33.50;10.80;;;16.00;99.90;;;;;;4990228;28;20054;-77
2022/01/12 12:17:54;;;;;;;29.73;11.32;;;16.10;99.90;;;;;;4990174;28;20058;-79
2022/01/12 12:20:24;;;;;;;32.22;12.07;;;16.30;99.90;;;;;;4979426;28;20466;-73
2022/01/12 12:22:55;;;;;;;33.00;10.93;;;16.60;99.90;;;;;;4959738;28;20043;-78
2022/01/12 12:25:28;;;;;;;32.85;10.13;;;16.90;99.90;;;;;;4985380;28;20057;-75
2022/01/12 12:28:02;;;;;;;32.55;11.00;;;17.10;99.90;;;;;;4995588;28;20050;-77
2022/01/12 12:30:34;;;;;;;30.70;11.10;;;17.30;99.90;;;;;;4974401;28;20054;-76
2022/01/12 12:33:14;;;;;;;24.52;10.40;;;17.70;99.90;;;;;;5001550;28;20042;-77
2022/01/12 12:35:44;;;;;;;28.67;9.95;;;18.00;99.90;;;;;;4989975;28;20050;-77
2022/01/12 12:38:13;;;;;;;;;;;18.20;99.90;;;;;;4994954;28;20052;-74
2022/01/12 12:40:50;;;;;;;32.88;11.18;;;18.20;98.70;;;;;;5003031;28;19922;-79
2022/01/12 12:43:24;;;;;;;30.48;11.30;;;18.30;99.90;;;;;;5000172;28;20483;-80
2022/01/12 12:45:56;;;;;;;27.70;11.75;;;18.10;99.90;;;;;;5006193;28;20045;-76
2022/01/12 12:48:25;;;;;;;30.30;11.00;;;17.90;99.90;;;;;;5000478;28;20495;-74
2022/01/12 12:51:08;;;;;;;27.40;10.27;;;17.80;99.90;;;;;;4976614;28;20075;-75
2022/01/12 12:53:41;;;;;;;31.10;10.82;;;17.70;99.30;;;;;;4975070;28;20041;-78
2022/01/12 12:56:12;;;;;;;29.48;10.88;;;17.40;99.70;;;;;;4988898;28;20721;-75
2022/01/12 12:58:43;;;;;;;32.80;10.32;;;17.20;99.80;;;;;;5004046;28;20061;-74
2022/01/12 13:01:13;;;;;;;34.60;10.88;;;17.00;99.90;;;;;;4994322;28;20042;-77
2022/01/12 13:03:50;;;;;;;34.70;11.25;;;16.80;99.60;;;;;;4993984;28;20043;-77
2022/01/12 13:06:27;;;;;;;32.67;10.98;;;16.60;99.50;;;;;;4989376;28;20078;-75
2022/01/12 13:09:05;;;;;;;27.85;9.80;;;16.40;99.90;;;;;;4984486;28;20058;-75
2022/01/12 13:11:37;;;;;;;27.45;9.25;;;16.20;99.90;;;;;;4984541;28;20057;-74
2022/01/12 13:14:08;;;;;;;30.95;9.68;;;16.10;99.90;;;;;;4985533;28;20046;-76
2022/01/12 13:16:45;;;;;;;33.70;10.20;;;15.90;99.80;;;;;;4984648;28;20050;-74
2022/01/12 13:19:33;;;;;;;22.57;8.90;;;15.60;99.60;;;;;;4984364;28;20734;-77
2022/01/12 13:22:00;;;;;;;;;;;15.40;99.90;;;;;;4984648;28;20080;-79
2022/01/12 13:24:28;;;;;;;33.72;9.70;;;15.30;99.40;;;;;;4986658;28;19956;-74
2022/01/12 13:26:56;;;;;;;30.92;10.25;;;15.20;99.90;;;;;;4985470;28;20054;-76
2022/01/12 13:29:24;;;;;;;37.15;10.13;;;15.20;99.90;;;;;;4987010;28;20729;-75
2022/01/12 13:31:52;;;;;;;32.28;10.10;;;15.20;99.90;;;;;;4986648;28;20410;-74
2022/01/12 13:34:21;;;;;;;29.60;9.60;;;15.10;99.90;;;;;;4966312;28;20476;-74
2022/01/12 13:36:52;;;;;;;29.40;9.50;;;15.10;99.90;;;;;;4984372;28;20057;-76
2022/01/12 13:39:20;;;;;;;30.85;9.55;;;14.90;99.90;;;;;;4987377;28;20058;-76
2022/01/12 13:41:51;;;;;;;31.08;9.38;;;14.70;99.90;;;;;;4985334;28;20069;-73
2022/01/12 13:44:20;;;;;;;31.10;9.57;;;14.50;99.90;;;;;;4986149;28;20050;-73
2022/01/12 13:47:24;;;;;;;26.80;9.77;;;14.50;99.90;;;;;;4985253;28;20054;-74
2022/01/12 13:49:49;;;;;;;30.02;9.23;;;14.30;99.90;;;;;;4986642;28;20053;-73
2022/01/12 13:52:16;;;;;;;37.55;10.45;;;14.10;99.90;;;;;;4986312;28;20056;-73
2022/01/12 13:54:45;;;;;;;30.48;10.00;;;14.10;99.90;;;;;;4986811;28;20057;-73
2022/01/12 13:57:17;;;;;;;31.42;9.98;;;14.20;99.90;;;;;;4985429;28;20518;-74
2022/01/12 13:59:52;;;;;;;28.70;10.13;;;14.50;99.90;;;;;;4985579;28;20050;-75
2022/01/12 14:02:24;;;;;;;31.40;9.63;;;14.80;99.90;;;;;;4985568;28;20591;-74
2022/01/12 14:05:06;;;;;;;31.38;9.50;;;15.20;99.90;;;;;;4985931;28;20423;-74
2022/01/12 14:07:38;;;;;;;26.60;8.95;;;15.50;99.90;;;;;;4986753;28;20046;-76
2022/01/12 14:10:09;;;;;;;23.90;7.60;;;15.80;99.90;;;;;;4985352;28;20054;-74
2022/01/12 14:12:37;;;;;;;27.63;7.80;;;16.20;99.90;;;;;;4983222;28;20506;-74
2022/01/12 14:15:07;;;;;;;26.67;8.30;;;16.50;99.80;;;;;;4991258;28;20042;-72